sensor_id;sensor_type;location;lat;lon;timestamp;pressure;altitude;pressure_sealevel;temperature;humidity
46241;BME280;31961;52.416;-0.732;2022-11-15T00:00:49;99431.18;;;8.93;100.00
46241;BME280;31961;52.416;-0.732;2022-11-15T00:03:18;99432.99;;;9.27;100.00
46241;BME280;31961;52.416;-0.732;2022-11-15T00:05:46;99430.57;;;10.03;100.00
46241;BME280;31961;52.416;-0.732;2022-11-15T00:08:13;99430.01;;;9.34;100.00
46241;BME280;31961;52.416;-0.732;2022-11-15T00:10:41;99425.13;;;10.00;100.00
46241;BME280;31961;52.416;-0.732;2022-11-15T00:13:10;99421.03;;;10.06;100.00
46241;BME280;31961;52.416;-0.732;2022-11-15T00:15:38;99418.12;;;9.95;100.00
46241;BME280;31961;52.416;-0.732;2022-11-15T00:18:09;99416.39;;;10.06;100.00
46241;BME280;31961;52.416;-0.732;2022-11-15T00:20:39;99419.84;;;10.46;100.00
46241;BME280;31961;52.416;-0.732;2022-11-15T00:23:07;99416.48;;;10.25;100.00
46241;BME280;31961;52.416;-0.732;2022-11-15T00:25:35;99409.61;;;10.26;100.00
46241;BME280;31961;52.416;-0.732;2022-11-15T00:28:02;99407.57;;;10.34;100.00
46241;BME280;31961;52.416;-0.732;2022-11-15T00:30:30;99405.13;;;10.30;100.00
46241;BME280;31961;52.416;-0.732;2022-11-15T00:33:01;99399.14;;;10.56;100.00
46241;BME280;31961;52.416;-0.732;2022-11-15T00:35:31;99391.72;;;9.89;100.00
46241;BME280;31961;52.416;-0.732;2022-11-15T00:37:59;99387.60;;;10.38;100.00
46241;BME280;31961;52.416;-0.732;2022-11-15T00:40:27;99372.82;;;10.18;100.00
46241;BME280;31961;52.416;-0.732;2022-11-15T00:42:55;99374.87;;;10.06;100.00
46241;BME280;31961;52.416;-0.732;2022-11-15T00:45:22;99370.28;;;9.86;100.00
46241;BME280;31961;52.416;-0.732;2022-11-15T00:47:50;99364.47;;;9.71;100.00
46241;BME280;31961;52.416;-0.732;2022-11-15T00:50:17;99359.49;;;9.47;100.00
46241;BME280;31961;52.416;-0.732;2022-11-15T00:52:45;99360.10;;;9.34;100.00
46241;BME280;31961;52.416;-0.732;2022-11-15T00:55:14;99347.50;;;9.43;100.00
46241;BME280;31961;52.416;-0.732;2022-11-15T00:57:42;99342.45;;;9.74;100.00
46241;BME280;31961;52.416;-0.732;2022-11-15T01:00:10;99335.13;;;9.57;100.00
46241;BME280;31961;52.416;-0.732;2022-11-15T01:02:38;99327.94;;;8.73;100.00
46241;BME280;31961;52.416;-0.732;2022-11-15T01:05:06;99324.59;;;8.55;100.00
46241;BME280;31961;52.416;-0.732;2022-11-15T01:07:34;99322.60;;;6.95;100.00
46241;BME280;31961;52.416;-0.732;2022-11-15T01:10:02;99317.92;;;7.59;100.00
46241;BME280;31961;52.416;-0.732;2022-11-15T01:12:29;99317.39;;;8.63;100.00
46241;BME280;31961;52.416;-0.732;2022-11-15T01:14:56;99319.73;;;7.84;100.00
46241;BME280;31961;52.416;-0.732;2022-11-15T01:17:24;99312.82;;;8.75;100.00
46241;BME280;31961;52.416;-0.732;2022-11-15T01:19:51;99308.49;;;8.86;100.00
46241;BME280;31961;52.416;-0.732;2022-11-15T01:22:19;99305.62;;;8.19;100.00
46241;BME280;31961;52.416;-0.732;2022-11-15T01:24:46;99301.37;;;8.89;100.00
46241;BME280;31961;52.416;-0.732;2022-11-15T01:27:13;99301.93;;;8.77;100.00
46241;BME280;31961;52.416;-0.732;2022-11-15T01:29:40;99298.47;;;8.89;100.00
46241;BME280;31961;52.416;-0.732;2022-11-15T01:32:08;99294.28;;;9.06;100.00
46241;BME280;31961;52.416;-0.732;2022-11-15T01:34:35;99293.99;;;8.01;100.00
46241;BME280;31961;52.416;-0.732;2022-11-15T01:37:03;99290.27;;;8.94;100.00
46241;BME280;31961;52.416;-0.732;2022-11-15T01:39:31;99283.09;;;8.96;100.00
46241;BME280;31961;52.416;-0.732;2022-11-15T01:41:58;99274.64;;;8.80;100.00
46241;BME280;31961;52.416;-0.732;2022-11-15T01:44:39;99271.69;;;8.83;100.00
46241;BME280;31961;52.416;-0.732;2022-11-15T01:47:09;99266.52;;;8.65;100.00
46241;BME280;31961;52.416;-0.732;2022-11-15T01:49:40;99265.13;;;8.52;100.00
46241;BME280;31961;52.416;-0.732;2022-11-15T01:52:12;99265.46;;;8.47;100.00
46241;BME280;31961;52.416;-0.732;2022-11-15T01:54:40;99265.97;;;8.67;100.00
46241;BME280;31961;52.416;-0.732;2022-11-15T01:57:09;99257.80;;;8.79;100.00
46241;BME280;31961;52.416;-0.732;2022-11-15T01:59:39;99251.13;;;8.24;100.00
46241;BME280;31961;52.416;-0.732;2022-11-15T02:02:07;99245.35;;;7.99;100.00
46241;BME280;31961;52.416;-0.732;2022-11-15T02:04:39;99241.70;;;7.95;100.00
46241;BME280;31961;52.416;-0.732;2022-11-15T02:07:09;99230.76;;;7.94;100.00
46241;BME280;31961;52.416;-0.732;2022-11-15T02:09:38;99220.56;;;8.03;100.00
46241;BME280;31961;52.416;-0.732;2022-11-15T02:12:07;99219.08;;;8.20;100.00
46241;BME280;31961;52.416;-0.732;2022-11-15T02:14:36;99216.35;;;7.45;100.00
46241;BME280;31961;52.416;-0.732;2022-11-15T02:17:13;99208.87;;;8.07;100.00
46241;BME280;31961;52.416;-0.732;2022-11-15T02:20:17;99206.69;;;8.41;100.00
46241;BME280;31961;52.416;-0.732;2022-11-15T02:23:06;99200.77;;;8.26;100.00
46241;BME280;31961;52.416;-0.732;2022-11-15T02:25:46;99194.99;;;7.94;100.00
46241;BME280;31961;52.416;-0.732;2022-11-15T02:28:35;99185.31;;;7.92;100.00
46241;BME280;31961;52.416;-0.732;2022-11-15T02:31:11;99179.55;;;7.98;100.00
46241;BME280;31961;52.416;-0.732;2022-11-15T02:33:46;99176.37;;;8.09;100.00
46241;BME280;31961;52.416;-0.732;2022-11-15T02:36:27;99183.12;;;8.20;100.00
46241;BME280;31961;52.416;-0.732;2022-11-15T02:39:02;99172.83;;;8.58;100.00
46241;BME280;31961;52.416;-0.732;2022-11-15T02:41:35;99162.78;;;8.01;100.00
46241;BME280;31961;52.416;-0.732;2022-11-15T02:44:12;99149.71;;;7.97;100.00
46241;BME280;31961;52.416;-0.732;2022-11-15T02:46:43;99143.00;;;8.34;100.00
46241;BME280;31961;52.416;-0.732;2022-11-15T02:49:13;99138.41;;;8.24;100.00
46241;BME280;31961;52.416;-0.732;2022-11-15T02:51:43;99136.44;;;8.01;100.00
46241;BME280;31961;52.416;-0.732;2022-11-15T02:54:13;99125.26;;;8.01;100.00
46241;BME280;31961;52.416;-0.732;2022-11-15T02:56:42;99116.76;;;7.97;100.00
46241;BME280;31961;52.416;-0.732;2022-11-15T02:59:34;99118.02;;;7.74;100.00
46241;BME280;31961;52.416;-0.732;2022-11-15T03:02:18;99119.78;;;7.65;100.00
46241;BME280;31961;52.416;-0.732;2022-11-15T03:04:53;99107.49;;;7.83;100.00
46241;BME280;31961;52.416;-0.732;2022-11-15T03:07:27;99102.66;;;7.73;100.00
46241;BME280;31961;52.416;-0.732;2022-11-15T03:10:00;99098.93;;;7.69;100.00
46241;BME280;31961;52.416;-0.732;2022-11-15T03:12:36;99092.82;;;7.31;100.00
46241;BME280;31961;52.416;-0.732;2022-11-15T03:15:08;99081.90;;;6.78;100.00
46241;BME280;31961;52.416;-0.732;2022-11-15T03:17:43;99078.09;;;7.26;100.00
46241;BME280;31961;52.416;-0.732;2022-11-15T03:20:15;99077.12;;;7.07;100.00
46241;BME280;31961;52.416;-0.732;2022-11-15T03:22:46;99078.35;;;8.37;100.00
46241;BME280;31961;52.416;-0.732;2022-11-15T03:25:18;99073.23;;;8.07;100.00
46241;BME280;31961;52.416;-0.732;2022-11-15T03:27:52;99074.34;;;7.81;100.00
46241;BME280;31961;52.416;-0.732;2022-11-15T03:30:21;99075.39;;;7.36;100.00
46241;BME280;31961;52.416;-0.732;2022-11-15T03:32:51;99071.41;;;7.74;100.00
46241;BME280;31961;52.416;-0.732;2022-11-15T03:35:25;99069.92;;;7.93;100.00
46241;BME280;31961;52.416;-0.732;2022-11-15T03:37:59;99068.99;;;7.85;100.00
46241;BME280;31961;52.416;-0.732;2022-11-15T03:41:09;99059.03;;;8.55;100.00
46241;BME280;31961;52.416;-0.732;2022-11-15T03:44:59;99048.72;;;8.11;100.00
46241;BME280;31961;52.416;-0.732;2022-11-15T03:47:32;99040.80;;;7.25;100.00
46241;BME280;31961;52.416;-0.732;2022-11-15T03:50:04;99039.08;;;7.86;100.00
46241;BME280;31961;52.416;-0.732;2022-11-15T03:52:34;99037.89;;;8.21;100.00
46241;BME280;31961;52.416;-0.732;2022-11-15T03:55:03;99034.54;;;7.72;100.00
46241;BME280;31961;52.416;-0.732;2022-11-15T03:57:31;99033.51;;;7.78;100.00
46241;BME280;31961;52.416;-0.732;2022-11-15T03:59:59;99031.35;;;7.97;100.00
46241;BME280;31961;52.416;-0.732;2022-11-15T04:02:27;99028.84;;;8.45;100.00
46241;BME280;31961;52.416;-0.732;2022-11-15T04:04:55;99015.06;;;8.79;100.00
46241;BME280;31961;52.416;-0.732;2022-11-15T04:07:22;99016.64;;;8.21;100.00
46241;BME280;31961;52.416;-0.732;2022-11-15T04:09:49;99012.19;;;8.03;100.00
46241;BME280;31961;52.416;-0.732;2022-11-15T04:12:16;99005.38;;;8.66;100.00
46241;BME280;31961;52.416;-0.732;2022-11-15T04:14:44;99009.64;;;8.47;100.00
46241;BME280;31961;52.416;-0.732;2022-11-15T04:17:12;99001.08;;;8.40;100.00
46241;BME280;31961;52.416;-0.732;2022-11-15T04:19:39;99001.17;;;8.19;100.00
46241;BME280;31961;52.416;-0.732;2022-11-15T04:22:07;98998.80;;;8.50;100.00
46241;BME280;31961;52.416;-0.732;2022-11-15T04:24:35;98999.07;;;8.09;100.00
46241;BME280;31961;52.416;-0.732;2022-11-15T04:27:02;98995.52;;;7.85;100.00
46241;BME280;31961;52.416;-0.732;2022-11-15T04:29:30;98993.17;;;8.33;100.00
46241;BME280;31961;52.416;-0.732;2022-11-15T04:31:57;98982.75;;;7.73;100.00
46241;BME280;31961;52.416;-0.732;2022-11-15T04:34:25;98972.20;;;7.65;100.00
46241;BME280;31961;52.416;-0.732;2022-11-15T04:36:52;98975.33;;;7.91;100.00
46241;BME280;31961;52.416;-0.732;2022-11-15T04:39:20;98959.76;;;8.18;100.00
46241;BME280;31961;52.416;-0.732;2022-11-15T04:41:47;98954.45;;;8.46;100.00
46241;BME280;31961;52.416;-0.732;2022-11-15T04:44:15;98950.14;;;8.36;100.00
46241;BME280;31961;52.416;-0.732;2022-11-15T04:46:43;98945.42;;;7.96;100.00
46241;BME280;31961;52.416;-0.732;2022-11-15T04:49:10;98942.27;;;7.84;100.00
46241;BME280;31961;52.416;-0.732;2022-11-15T04:51:38;98939.89;;;7.82;100.00
46241;BME280;31961;52.416;-0.732;2022-11-15T04:54:06;98941.15;;;7.95;100.00
46241;BME280;31961;52.416;-0.732;2022-11-15T04:56:33;98938.89;;;7.74;100.00
46241;BME280;31961;52.416;-0.732;2022-11-15T04:59:01;98924.52;;;8.15;100.00
46241;BME280;31961;52.416;-0.732;2022-11-15T05:01:28;98917.36;;;8.08;100.00
46241;BME280;31961;52.416;-0.732;2022-11-15T05:03:56;98918.17;;;7.87;100.00
46241;BME280;31961;52.416;-0.732;2022-11-15T05:06:23;98912.10;;;7.78;100.00
46241;BME280;31961;52.416;-0.732;2022-11-15T05:08:51;98901.90;;;8.18;100.00
46241;BME280;31961;52.416;-0.732;2022-11-15T05:11:18;98897.60;;;8.35;100.00
46241;BME280;31961;52.416;-0.732;2022-11-15T05:13:46;98890.60;;;8.12;100.00
46241;BME280;31961;52.416;-0.732;2022-11-15T05:16:13;98884.94;;;8.34;100.00
46241;BME280;31961;52.416;-0.732;2022-11-15T05:18:41;98875.12;;;8.25;100.00
46241;BME280;31961;52.416;-0.732;2022-11-15T05:21:11;98876.46;;;8.32;100.00
46241;BME280;31961;52.416;-0.732;2022-11-15T05:23:39;98875.44;;;8.48;100.00
46241;BME280;31961;52.416;-0.732;2022-11-15T05:26:08;98871.89;;;7.96;100.00
46241;BME280;31961;52.416;-0.732;2022-11-15T05:28:36;98862.02;;;8.28;100.00
46241;BME280;31961;52.416;-0.732;2022-11-15T05:31:05;98854.66;;;8.02;100.00
46241;BME280;31961;52.416;-0.732;2022-11-15T05:33:33;98859.88;;;8.09;100.00
46241;BME280;31961;52.416;-0.732;2022-11-15T05:36:05;98861.04;;;7.95;100.00
46241;BME280;31961;52.416;-0.732;2022-11-15T05:38:33;98860.57;;;8.02;100.00
46241;BME280;31961;52.416;-0.732;2022-11-15T05:41:01;98853.78;;;8.45;100.00
46241;BME280;31961;52.416;-0.732;2022-11-15T05:43:29;98855.97;;;8.23;100.00
46241;BME280;31961;52.416;-0.732;2022-11-15T05:45:59;98849.38;;;8.70;100.00
46241;BME280;31961;52.416;-0.732;2022-11-15T05:48:27;98844.13;;;8.35;100.00
46241;BME280;31961;52.416;-0.732;2022-11-15T05:50:55;98839.82;;;8.94;100.00
46241;BME280;31961;52.416;-0.732;2022-11-15T05:53:24;98830.60;;;8.96;100.00
46241;BME280;31961;52.416;-0.732;2022-11-15T05:55:52;98827.86;;;8.94;100.00
46241;BME280;31961;52.416;-0.732;2022-11-15T05:58:20;98826.86;;;8.68;100.00
46241;BME280;31961;52.416;-0.732;2022-11-15T06:00:48;98817.48;;;9.03;100.00
46241;BME280;31961;52.416;-0.732;2022-11-15T06:03:15;98809.85;;;8.64;100.00
46241;BME280;31961;52.416;-0.732;2022-11-15T06:05:43;98804.92;;;8.74;100.00
46241;BME280;31961;52.416;-0.732;2022-11-15T06:08:11;98805.65;;;9.10;100.00
46241;BME280;31961;52.416;-0.732;2022-11-15T06:10:38;98802.20;;;8.83;100.00
46241;BME280;31961;52.416;-0.732;2022-11-15T06:13:06;98799.01;;;8.49;100.00
46241;BME280;31961;52.416;-0.732;2022-11-15T06:15:33;98797.19;;;8.88;100.00
46241;BME280;31961;52.416;-0.732;2022-11-15T06:18:01;98795.42;;;9.13;100.00
46241;BME280;31961;52.416;-0.732;2022-11-15T06:20:29;98794.01;;;9.03;100.00
46241;BME280;31961;52.416;-0.732;2022-11-15T06:22:58;98787.59;;;8.58;100.00
46241;BME280;31961;52.416;-0.732;2022-11-15T06:25:26;98784.25;;;8.60;100.00
46241;BME280;31961;52.416;-0.732;2022-11-15T06:27:54;98779.48;;;8.64;100.00
46241;BME280;31961;52.416;-0.732;2022-11-15T06:30:21;98780.07;;;8.48;100.00
46241;BME280;31961;52.416;-0.732;2022-11-15T06:32:49;98773.51;;;8.73;100.00
46241;BME280;31961;52.416;-0.732;2022-11-15T06:35:17;98773.31;;;8.30;100.00
46241;BME280;31961;52.416;-0.732;2022-11-15T06:37:44;98770.07;;;8.41;100.00
46241;BME280;31961;52.416;-0.732;2022-11-15T06:40:12;98765.48;;;8.86;100.00
46241;BME280;31961;52.416;-0.732;2022-11-15T06:42:39;98766.44;;;8.39;100.00
46241;BME280;31961;52.416;-0.732;2022-11-15T06:45:07;98761.15;;;8.40;100.00
46241;BME280;31961;52.416;-0.732;2022-11-15T06:47:35;98761.86;;;8.17;100.00
46241;BME280;31961;52.416;-0.732;2022-11-15T06:50:03;98757.03;;;8.28;100.00
46241;BME280;31961;52.416;-0.732;2022-11-15T06:52:31;98760.50;;;7.80;100.00
46241;BME280;31961;52.416;-0.732;2022-11-15T06:54:58;98752.72;;;7.68;100.00
46241;BME280;31961;52.416;-0.732;2022-11-15T06:57:26;98756.63;;;7.79;100.00
46241;BME280;31961;52.416;-0.732;2022-11-15T06:59:53;98755.43;;;7.62;100.00
46241;BME280;31961;52.416;-0.732;2022-11-15T07:02:21;98753.39;;;7.72;100.00
46241;BME280;31961;52.416;-0.732;2022-11-15T07:04:49;98749.69;;;8.24;100.00
46241;BME280;31961;52.416;-0.732;2022-11-15T07:07:16;98744.23;;;7.72;100.00
46241;BME280;31961;52.416;-0.732;2022-11-15T07:09:44;98745.50;;;8.24;100.00
46241;BME280;31961;52.416;-0.732;2022-11-15T07:12:11;98741.61;;;7.86;100.00
46241;BME280;31961;52.416;-0.732;2022-11-15T07:14:39;98738.41;;;8.47;100.00
46241;BME280;31961;52.416;-0.732;2022-11-15T07:17:06;98734.83;;;8.08;100.00
46241;BME280;31961;52.416;-0.732;2022-11-15T07:19:34;98733.53;;;7.90;100.00
46241;BME280;31961;52.416;-0.732;2022-11-15T07:22:01;98727.04;;;8.31;100.00
46241;BME280;31961;52.416;-0.732;2022-11-15T07:24:29;98718.88;;;8.48;100.00
46241;BME280;31961;52.416;-0.732;2022-11-15T07:26:56;98719.90;;;8.18;100.00
46241;BME280;31961;52.416;-0.732;2022-11-15T07:29:24;98715.67;;;8.19;100.00
46241;BME280;31961;52.416;-0.732;2022-11-15T07:31:52;98714.40;;;8.01;100.00
46241;BME280;31961;52.416;-0.732;2022-11-15T07:34:19;98707.74;;;8.55;100.00
46241;BME280;31961;52.416;-0.732;2022-11-15T07:36:47;98705.95;;;8.13;100.00
46241;BME280;31961;52.416;-0.732;2022-11-15T07:39:14;98702.95;;;8.62;100.00
46241;BME280;31961;52.416;-0.732;2022-11-15T07:41:42;98697.27;;;8.01;100.00
46241;BME280;31961;52.416;-0.732;2022-11-15T07:44:09;98703.21;;;8.29;100.00
46241;BME280;31961;52.416;-0.732;2022-11-15T07:46:37;98696.10;;;7.70;100.00
46241;BME280;31961;52.416;-0.732;2022-11-15T07:49:05;98692.95;;;7.78;100.00
46241;BME280;31961;52.416;-0.732;2022-11-15T07:51:32;98691.88;;;8.07;100.00
46241;BME280;31961;52.416;-0.732;2022-11-15T07:54:00;98685.48;;;8.19;100.00
46241;BME280;31961;52.416;-0.732;2022-11-15T07:56:28;98680.58;;;8.14;100.00
46241;BME280;31961;52.416;-0.732;2022-11-15T07:58:55;98679.58;;;8.42;100.00
46241;BME280;31961;52.416;-0.732;2022-11-15T08:01:22;98673.04;;;8.62;100.00
46241;BME280;31961;52.416;-0.732;2022-11-15T08:03:50;98664.74;;;8.44;100.00
46241;BME280;31961;52.416;-0.732;2022-11-15T08:06:17;98660.52;;;8.37;100.00
46241;BME280;31961;52.416;-0.732;2022-11-15T08:08:47;98656.96;;;8.26;100.00
46241;BME280;31961;52.416;-0.732;2022-11-15T08:11:14;98651.09;;;8.22;100.00
46241;BME280;31961;52.416;-0.732;2022-11-15T08:13:42;98647.87;;;8.14;100.00
46241;BME280;31961;52.416;-0.732;2022-11-15T08:16:09;98643.89;;;8.13;100.00
46241;BME280;31961;52.416;-0.732;2022-11-15T08:18:37;98643.62;;;8.08;100.00
46241;BME280;31961;52.416;-0.732;2022-11-15T08:21:05;98641.99;;;8.49;100.00
46241;BME280;31961;52.416;-0.732;2022-11-15T08:23:32;98641.29;;;8.31;100.00
46241;BME280;31961;52.416;-0.732;2022-11-15T08:26:01;98639.81;;;8.21;100.00
46241;BME280;31961;52.416;-0.732;2022-11-15T08:28:28;98633.46;;;8.74;100.00
46241;BME280;31961;52.416;-0.732;2022-11-15T08:30:56;98628.80;;;8.32;100.00
46241;BME280;31961;52.416;-0.732;2022-11-15T08:33:23;98625.95;;;8.29;100.00
46241;BME280;31961;52.416;-0.732;2022-11-15T08:35:51;98614.68;;;8.77;100.00
46241;BME280;31961;52.416;-0.732;2022-11-15T08:38:18;98615.51;;;8.30;100.00
46241;BME280;31961;52.416;-0.732;2022-11-15T08:40:45;98610.59;;;8.57;100.00
46241;BME280;31961;52.416;-0.732;2022-11-15T08:43:12;98611.61;;;7.95;100.00
46241;BME280;31961;52.416;-0.732;2022-11-15T08:45:40;98609.87;;;7.68;100.00
46241;BME280;31961;52.416;-0.732;2022-11-15T08:48:07;98603.47;;;8.25;100.00
46241;BME280;31961;52.416;-0.732;2022-11-15T08:50:35;98600.86;;;8.41;100.00
46241;BME280;31961;52.416;-0.732;2022-11-15T08:53:06;98594.01;;;8.29;100.00
46241;BME280;31961;52.416;-0.732;2022-11-15T08:55:36;98589.29;;;8.62;100.00
46241;BME280;31961;52.416;-0.732;2022-11-15T08:58:04;98584.61;;;8.56;100.00
46241;BME280;31961;52.416;-0.732;2022-11-15T09:00:31;98578.24;;;7.89;100.00
46241;BME280;31961;52.416;-0.732;2022-11-15T09:02:59;98572.58;;;8.52;100.00
46241;BME280;31961;52.416;-0.732;2022-11-15T09:05:27;98576.67;;;8.37;100.00
46241;BME280;31961;52.416;-0.732;2022-11-15T09:07:54;98565.51;;;8.42;100.00
46241;BME280;31961;52.416;-0.732;2022-11-15T09:10:22;98562.44;;;8.43;100.00
46241;BME280;31961;52.416;-0.732;2022-11-15T09:12:49;98558.21;;;8.14;100.00
46241;BME280;31961;52.416;-0.732;2022-11-15T09:15:16;98553.60;;;8.26;100.00
46241;BME280;31961;52.416;-0.732;2022-11-15T09:17:44;98553.03;;;8.54;100.00
46241;BME280;31961;52.416;-0.732;2022-11-15T09:20:11;98550.27;;;8.33;100.00
46241;BME280;31961;52.416;-0.732;2022-11-15T09:22:39;98548.66;;;8.72;100.00
46241;BME280;31961;52.416;-0.732;2022-11-15T09:25:08;98544.94;;;8.89;100.00
46241;BME280;31961;52.416;-0.732;2022-11-15T09:27:35;98541.29;;;8.19;100.00
46241;BME280;31961;52.416;-0.732;2022-11-15T09:30:03;98536.76;;;8.72;100.00
46241;BME280;31961;52.416;-0.732;2022-11-15T09:32:31;98536.64;;;8.94;100.00
46241;BME280;31961;52.416;-0.732;2022-11-15T09:34:57;98533.22;;;8.95;100.00
46241;BME280;31961;52.416;-0.732;2022-11-15T09:37:25;98524.92;;;8.81;100.00
46241;BME280;31961;52.416;-0.732;2022-11-15T09:39:52;98521.28;;;8.77;100.00
46241;BME280;31961;52.416;-0.732;2022-11-15T09:42:30;98516.76;;;8.85;100.00
46241;BME280;31961;52.416;-0.732;2022-11-15T09:45:13;98513.47;;;8.81;100.00
46241;BME280;31961;52.416;-0.732;2022-11-15T09:47:56;98508.88;;;8.96;100.00
46241;BME280;31961;52.416;-0.732;2022-11-15T09:50:33;98502.27;;;8.74;100.00
46241;BME280;31961;52.416;-0.732;2022-11-15T09:53:01;98497.24;;;8.69;100.00
46241;BME280;31961;52.416;-0.732;2022-11-15T09:55:34;98496.26;;;8.86;100.00
46241;BME280;31961;52.416;-0.732;2022-11-15T09:58:15;98493.48;;;8.75;100.00
46241;BME280;31961;52.416;-0.732;2022-11-15T10:00:47;98488.88;;;8.48;100.00
46241;BME280;31961;52.416;-0.732;2022-11-15T10:03:18;98486.37;;;8.61;100.00
46241;BME280;31961;52.416;-0.732;2022-11-15T10:05:48;98485.48;;;8.94;100.00
46241;BME280;31961;52.416;-0.732;2022-11-15T10:08:26;98474.66;;;9.06;100.00
46241;BME280;31961;52.416;-0.732;2022-11-15T10:10:57;98468.85;;;8.89;100.00
46241;BME280;31961;52.416;-0.732;2022-11-15T10:13:29;98472.02;;;8.83;100.00
46241;BME280;31961;52.416;-0.732;2022-11-15T10:16:03;98465.08;;;9.02;100.00
46241;BME280;31961;52.416;-0.732;2022-11-15T10:18:35;98459.25;;;9.42;100.00
46241;BME280;31961;52.416;-0.732;2022-11-15T10:21:16;98454.50;;;9.09;100.00
46241;BME280;31961;52.416;-0.732;2022-11-15T10:23:44;98452.66;;;8.43;100.00
46241;BME280;31961;52.416;-0.732;2022-11-15T10:26:15;98445.02;;;8.93;100.00
46241;BME280;31961;52.416;-0.732;2022-11-15T10:28:43;98438.94;;;8.82;100.00
46241;BME280;31961;52.416;-0.732;2022-11-15T10:31:22;98442.66;;;8.74;100.00
46241;BME280;31961;52.416;-0.732;2022-11-15T10:33:50;98434.85;;;8.76;100.00
46241;BME280;31961;52.416;-0.732;2022-11-15T10:36:20;98439.33;;;8.40;100.00
46241;BME280;31961;52.416;-0.732;2022-11-15T10:38:55;98432.88;;;8.92;100.00
46241;BME280;31961;52.416;-0.732;2022-11-15T10:41:30;98428.12;;;9.21;100.00
46241;BME280;31961;52.416;-0.732;2022-11-15T10:44:09;98433.58;;;9.07;100.00
46241;BME280;31961;52.416;-0.732;2022-11-15T10:46:41;98424.68;;;8.81;100.00
46241;BME280;31961;52.416;-0.732;2022-11-15T10:49:15;98414.79;;;8.92;100.00
46241;BME280;31961;52.416;-0.732;2022-11-15T10:51:46;98415.86;;;8.87;100.00
46241;BME280;31961;52.416;-0.732;2022-11-15T10:54:16;98410.48;;;8.80;100.00
46241;BME280;31961;52.416;-0.732;2022-11-15T10:56:49;98397.79;;;8.67;100.00
46241;BME280;31961;52.416;-0.732;2022-11-15T10:59:26;98391.45;;;8.94;100.00
46241;BME280;31961;52.416;-0.732;2022-11-15T11:01:54;98384.28;;;9.22;100.00
46241;BME280;31961;52.416;-0.732;2022-11-15T11:04:22;98378.25;;;8.79;100.00
46241;BME280;31961;52.416;-0.732;2022-11-15T11:06:51;98365.88;;;8.83;100.00
46241;BME280;31961;52.416;-0.732;2022-11-15T11:09:27;98357.68;;;9.38;100.00
46241;BME280;31961;52.416;-0.732;2022-11-15T11:11:55;98345.62;;;9.55;100.00
46241;BME280;31961;52.416;-0.732;2022-11-15T11:14:24;98337.06;;;9.35;100.00
46241;BME280;31961;52.416;-0.732;2022-11-15T11:16:55;98325.01;;;9.43;100.00
46241;BME280;31961;52.416;-0.732;2022-11-15T11:19:41;98319.82;;;9.67;100.00
46241;BME280;31961;52.416;-0.732;2022-11-15T11:22:22;98314.32;;;9.18;100.00
46241;BME280;31961;52.416;-0.732;2022-11-15T11:24:58;98310.04;;;9.51;100.00
46241;BME280;31961;52.416;-0.732;2022-11-15T11:27:39;98304.47;;;9.48;100.00
46241;BME280;31961;52.416;-0.732;2022-11-15T11:30:14;98299.66;;;9.58;100.00
46241;BME280;31961;52.416;-0.732;2022-11-15T11:32:55;98298.82;;;9.72;100.00
46241;BME280;31961;52.416;-0.732;2022-11-15T11:35:29;98294.61;;;9.52;100.00
46241;BME280;31961;52.416;-0.732;2022-11-15T11:38:09;98289.63;;;9.06;100.00
46241;BME280;31961;52.416;-0.732;2022-11-15T11:40:57;98291.03;;;9.71;100.00
46241;BME280;31961;52.416;-0.732;2022-11-15T11:43:33;98295.09;;;9.07;100.00
46241;BME280;31961;52.416;-0.732;2022-11-15T11:46:12;98295.48;;;9.27;100.00
46241;BME280;31961;52.416;-0.732;2022-11-15T11:48:42;98289.51;;;9.66;100.00
46241;BME280;31961;52.416;-0.732;2022-11-15T11:51:15;98271.65;;;9.63;100.00
46241;BME280;31961;52.416;-0.732;2022-11-15T11:53:49;98265.49;;;9.61;100.00
46241;BME280;31961;52.416;-0.732;2022-11-15T11:56:24;98255.13;;;10.05;100.00
46241;BME280;31961;52.416;-0.732;2022-11-15T11:58:54;98259.82;;;9.72;100.00
46241;BME280;31961;52.416;-0.732;2022-11-15T12:01:24;98261.77;;;9.38;100.00
46241;BME280;31961;52.416;-0.732;2022-11-15T12:03:56;98254.28;;;9.73;100.00
46241;BME280;31961;52.416;-0.732;2022-11-15T12:06:32;98248.12;;;9.51;100.00
46241;BME280;31961;52.416;-0.732;2022-11-15T12:09:04;98241.95;;;9.48;100.00
46241;BME280;31961;52.416;-0.732;2022-11-15T12:11:51;98241.07;;;9.47;100.00
46241;BME280;31961;52.416;-0.732;2022-11-15T12:14:27;98237.50;;;9.57;100.00
46241;BME280;31961;52.416;-0.732;2022-11-15T12:16:55;98232.65;;;9.46;100.00
46241;BME280;31961;52.416;-0.732;2022-11-15T12:19:24;98224.75;;;9.75;100.00
46241;BME280;31961;52.416;-0.732;2022-11-15T12:21:56;98217.35;;;9.58;100.00
46241;BME280;31961;52.416;-0.732;2022-11-15T12:24:28;98208.82;;;9.51;100.00
46241;BME280;31961;52.416;-0.732;2022-11-15T12:27:01;98206.36;;;9.30;100.00
46241;BME280;31961;52.416;-0.732;2022-11-15T12:29:36;98193.99;;;9.54;100.00
46241;BME280;31961;52.416;-0.732;2022-11-15T12:32:10;98187.44;;;9.56;100.00
46241;BME280;31961;52.416;-0.732;2022-11-15T12:34:44;98180.12;;;9.82;100.00
46241;BME280;31961;52.416;-0.732;2022-11-15T12:38:53;98172.95;;;9.92;100.00
46241;BME280;31961;52.416;-0.732;2022-11-15T12:41:24;98165.67;;;9.23;100.00
46241;BME280;31961;52.416;-0.732;2022-11-15T12:43:52;98165.39;;;9.63;100.00
46241;BME280;31961;52.416;-0.732;2022-11-15T12:46:26;98154.68;;;9.52;100.00
46241;BME280;31961;52.416;-0.732;2022-11-15T12:49:45;98152.67;;;9.71;100.00
46241;BME280;31961;52.416;-0.732;2022-11-15T12:52:13;98150.34;;;10.02;100.00
46241;BME280;31961;52.416;-0.732;2022-11-15T12:55:03;98142.70;;;9.71;100.00
46241;BME280;31961;52.416;-0.732;2022-11-15T12:57:55;98136.25;;;9.68;100.00
46241;BME280;31961;52.416;-0.732;2022-11-15T13:00:46;98134.51;;;9.60;100.00
46241;BME280;31961;52.416;-0.732;2022-11-15T13:03:25;98127.94;;;10.53;100.00
46241;BME280;31961;52.416;-0.732;2022-11-15T13:05:59;98122.58;;;10.31;100.00
46241;BME280;31961;52.416;-0.732;2022-11-15T13:09:00;98111.50;;;9.97;100.00
46241;BME280;31961;52.416;-0.732;2022-11-15T13:11:45;98112.98;;;9.60;100.00